Terminal Aerodrome Forecast
Issued by NWS Sioux Falls, SD

Home | Current Version | Previous Version | Graphics & Text | Print | Product List | Glossary On
Versions: 1 2 3 4 5 6 7 8 9 10 11 12 13 14 15 16 17 18 19 20 21 22 23 24 25 26 27 28 29 30 31 32 33 34 35
000
FTUS43 KFSD 221120
TAFSUX
TAF
KSUX 221120Z 2212/2312 16011KT 5SM BR OVC006
      TEMPO 2212/2214 SCT006 BKN012
     FM221500 16009KT 5SM BR OVC008
     FM221700 21007KT P6SM OVC012
     FM222300 30007KT P6SM OVC012
     FM230300 33010KT 5SM -SN BR OVC008
     FM230800 34014KT 2SM -SN OVC005=

USA.gov is the U.S. government's official web portal to all federal, state and local government web resources and services.